| time (UTC) | temp F | wind direction | speed MPH | gust MPH | rain 1hr in | rain 24hr in | rain mn in | humidity % | barometer mb |
| 20260509181550 | 80 | 216 | 1.0 | 1.0 | 0.00 | 0.19 | 0.20 | 53 | 1008.1 |
| 20260509180544 | 80 | 216 | 1.0 | 1.0 | 0.00 | 0.19 | 0.20 | 53 | 1008.1 |
| 20260509180213 | 80 | 215 | 1.0 | 6.0 | 0.00 | 0.19 | 0.20 | 53 | 1008.2 |
| 20260509175156 | 80 | 227 | 1.0 | 6.0 | 0.00 | 0.19 | 0.20 | 54 | 1008.3 |
| 20260509174125 | 79 | 271 | 1.0 | 6.0 | 0.00 | 0.19 | 0.20 | 56 | 1008.5 |
| 20260509173106 | 79 | 229 | 2.0 | 5.0 | 0.00 | 0.19 | 0.20 | 56 | 1008.6 |
| 20260509172102 | 79 | 243 | 1.0 | 5.0 | 0.00 | 0.19 | 0.20 | 57 | 1008.7 |
| 20260509171107 | 78 | 274 | 1.0 | 6.0 | 0.00 | 0.19 | 0.20 | 63 | 1008.8 |
| 20260509170046 | 78 | 315 | 1.0 | 6.0 | 0.00 | 0.19 | 0.20 | 58 | 1008.8 |
| 20260509165013 | 77 | 242 | 2.0 | 6.0 | 0.00 | 0.19 | 0.20 | 63 | 1008.9 |
| 20260509164006 | 77 | 227 | 2.0 | 6.0 | 0.00 | 0.19 | 0.20 | 62 | 1009.0 |
| 20260509162936 | 77 | 248 | 1.0 | 4.0 | 0.00 | 0.19 | 0.20 | 64 | 1009.0 |
| 20260509161951 | 76 | 223 | 1.0 | 9.0 | 0.00 | 0.19 | 0.20 | 65 | 1009.1 |
| 20260509161009 | 76 | 333 | 1.0 | 9.0 | 0.00 | 0.19 | 0.20 | 64 | 1009.1 |
| 20260509155953 | 75 | 267 | 1.0 | 5.0 | 0.00 | 0.19 | 0.20 | 65 | 1009.0 |
| 20260509153811 | 73 | 328 | 1.0 | 6.0 | 0.00 | 0.19 | 0.20 | 69 | 1009.1 |
| 20260509152738 | 72 | 275 | 1.0 | 6.0 | 0.00 | 0.19 | 0.20 | 69 | 1009.0 |
| 20260509151753 | 72 | 271 | 1.0 | 7.0 | 0.00 | 0.19 | 0.20 | 71 | 1009.0 |
| 20260509150728 | 71 | 328 | 1.0 | 7.0 | 0.00 | 0.19 | 0.20 | 71 | 1009.0 |
| 20260509145719 | 70 | 267 | 0.0 | 4.0 | 0.00 | 0.19 | 0.20 | 72 | 1009.0 |
| 20260509144659 | 69 | 271 | 1.0 | 5.0 | 0.00 | 0.19 | 0.20 | 76 | 1009.1 |
| 20260509142614 | 67 | 270 | 1.0 | 7.0 | 0.00 | 0.19 | 0.20 | 79 | 1009.1 |
| 20260509141545 | 65 | 304 | 2.0 | 7.0 | 0.00 | 0.19 | 0.20 | 81 | 1009.0 |
| 20260509135445 | 63 | 40 | 2.0 | 6.0 | 0.00 | 0.19 | 0.20 | 86 | 1009.1 |
| 20260509134500 | 62 | 355 | 1.0 | 5.0 | 0.00 | 0.19 | 0.20 | 88 | 1008.9 |
| 20260509133435 | 61 | 325 | 0.0 | 4.0 | 0.00 | 0.19 | 0.20 | 88 | 1008.8 |
| 20260509132442 | 60 | 316 | 1.0 | 4.0 | 0.00 | 0.19 | 0.20 | 89 | 1008.7 |
| 20260509131503 | 59 | 337 | 1.0 | 6.0 | 0.00 | 0.19 | 0.20 | 92 | 1008.8 |
| 20260509130451 | 58 | 269 | 1.0 | 6.0 | 0.00 | 0.19 | 0.20 | 93 | 1008.5 |
| 20260509125511 | 57 | 311 | 0.0 | 4.0 | 0.00 | 0.19 | 0.20 | 94 | 1008.4 |
| 20260509123418 | 57 | 9 | 0.0 | 3.0 | 0.00 | 0.19 | 0.20 | 93 | 1008.2 |
| 20260509122432 | 57 | 13 | 0.0 | 5.0 | 0.00 | 0.19 | 0.20 | 92 | 1008.1 |
| 20260509121440 | 57 | 343 | 1.0 | 6.0 | 0.00 | 0.19 | 0.20 | 92 | 1007.8 |
| 20260509120456 | 57 | 327 | 1.0 | 6.0 | 0.00 | 0.19 | 0.20 | 92 | 1007.7 |
| 20260509115443 | 57 | 302 | 0.0 | 4.0 | 0.00 | 0.19 | 0.20 | 91 | 1007.7 |
| 20260509114434 | 57 | 299 | 1.0 | 7.0 | 0.00 | 0.19 | 0.20 | 91 | 1007.4 |
| 20260509113452 | 57 | 336 | 1.0 | 7.0 | 0.00 | 0.19 | 0.20 | 90 | 1007.3 |
| 20260509112504 | 58 | 290 | 2.0 | 7.0 | 0.00 | 0.19 | 0.20 | 90 | 1007.3 |
| 20260509111445 | 58 | 264 | 2.0 | 10.0 | 0.00 | 0.19 | 0.20 | 89 | 1007.1 |
| 20260509110444 | 59 | 290 | 4.0 | 10.0 | 0.00 | 0.19 | 0.20 | 87 | 1006.9 |
| 20260509103117 | 65 | 336 | 3.0 | 17.0 | 0.00 | 0.19 | 0.20 | 66 | 1005.9 |
| 20260509102047 | 66 | 119 | 10.0 | 17.0 | 0.00 | 0.19 | 0.20 | 59 | 1004.5 |
| 20260509094835 | 63 | 159 | 2.0 | 10.0 | 0.00 | 0.19 | 0.20 | 70 | 1008.4 |
| 20260509093840 | 62 | 130 | 2.0 | 18.0 | 0.00 | 0.19 | 0.20 | 79 | 1008.5 |
| 20260509092812 | 61 | 63 | 5.0 | 18.0 | 0.04 | 0.19 | 0.20 | 81 | 1008.5 |
| 20260509091745 | 57 | 73 | 4.0 | 8.0 | 0.05 | 0.19 | 0.19 | 96 | 1008.6 |
| 20260509090802 | 57 | 140 | 1.0 | 7.0 | 0.06 | 0.19 | 0.19 | 97 | 1010.2 |
| 20260509085755 | 57 | 142 | 3.0 | 8.0 | 0.26 | 0.18 | 0.18 | 97 | 1010.7 |
| 20260509084814 | 57 | 350 | 0.0 | 8.0 | 0.18 | 0.09 | 0.10 | 96 | 1011.7 |
| 20260509083815 | 57 | 350 | 3.0 | 8.0 | 0.31 | 0.06 | 0.06 | 96 | 1011.3 |
| 20260509081623 | 61 | 103 | 3.0 | 10.0 | 0.00 | 0.00 | 0.00 | 98 | 1010.4 |
| 20260509080634 | 62 | 338 | 3.0 | 8.0 | 0.00 | 0.00 | 0.00 | 98 | 1010.1 |
| 20260509072226 | 63 | 77 | 0.0 | 5.0 | 0.00 | 0.00 | 0.00 | 98 | 1009.9 |
| 20260509071155 | 63 | 63 | 2.0 | 6.0 | 0.00 | 0.00 | 0.00 | 98 | 1009.9 |
| 20260509070214 | 62 | 188 | 2.0 | 6.0 | 0.00 | 0.00 | 0.00 | 98 | 1008.4 |
| 20260509065156 | 63 | 200 | 2.0 | 5.0 | 0.00 | 0.00 | 0.00 | 98 | 1008.4 |
| 20260509064131 | 63 | 227 | 3.0 | 7.0 | 0.00 | 0.00 | 0.00 | 98 | 1008.3 |
| 20260509063150 | 62 | 196 | 2.0 | 7.0 | 0.00 | 0.00 | 0.00 | 98 | 1008.2 |
| 20260509062213 | 60 | 207 | 0.0 | 7.0 | 0.00 | 0.00 | 0.00 | 97 | 1008.0 |
| 20260509061144 | 60 | 123 | 0.0 | 0.0 | 0.00 | 0.00 | 0.00 | 96 | 1007.9 |
| 20260509060118 | 60 | 123 | 0.0 | 0.0 | 0.00 | 0.00 | 0.00 | 96 | 1007.4 |
| 20260509055122 | 60 | 123 | 0.0 | 0.0 | 0.00 | 0.00 | 0.00 | 96 | 1007.5 |
| 20260509054131 | 60 | 123 | 0.0 | 1.0 | 0.00 | 0.00 | 0.00 | 96 | 1007.6 |
| 20260509053110 | 61 | 123 | 0.0 | 0.0 | 0.00 | 0.00 | 0.00 | 96 | 1007.7 |
| 20260509050922 | 60 | 123 | 0.0 | 0.0 | 0.00 | 0.00 | 0.00 | 95 | 1008.0 |
| 20260509045850 | 60 | 123 | 0.0 | 0.0 | 0.00 | 0.00 | 0.00 | 95 | 1008.2 |
| 20260509043724 | 61 | 123 | 0.0 | 0.0 | 0.00 | 0.00 | 0.00 | 95 | 1008.1 |
| 20260509041607 | 61 | 123 | 0.0 | 0.0 | 0.00 | 0.00 | 0.00 | 94 | 1007.9 |
| 20260509040546 | 61 | 123 | 0.0 | 0.0 | 0.00 | 0.00 | 0.00 | 94 | 1007.9 |
| 20260509035558 | 62 | 123 | 0.0 | 0.0 | 0.00 | 0.00 | 0.00 | 93 | 1008.0 |
| 20260509034538 | 62 | 123 | 0.0 | 0.0 | 0.00 | 0.00 | 0.00 | 93 | 1008.0 |
| 20260509033544 | 63 | 123 | 0.0 | 0.0 | 0.00 | 0.00 | 0.00 | 93 | 1008.0 |
| 20260509031409 | 63 | 123 | 0.0 | 0.0 | 0.00 | 0.00 | 0.00 | 92 | 1007.9 |
| 20260509030428 | 63 | 123 | 0.0 | 0.0 | 0.00 | 0.00 | 0.00 | 92 | 1007.7 |
| 20260509025407 | 64 | 123 | 0.0 | 0.0 | 0.00 | 0.00 | 0.00 | 92 | 1007.5 |
| 20260509023230 | 64 | 123 | 0.0 | 0.0 | 0.00 | 0.00 | 0.00 | 91 | 1007.4 |
| 20260509022227 | 64 | 123 | 0.0 | 0.0 | 0.00 | 0.00 | 0.00 | 91 | 1007.1 |
| 20260509021204 | 65 | 123 | 0.0 | 1.0 | 0.00 | 0.00 | 0.00 | 91 | 1006.9 |
| 20260509020148 | 65 | 123 | 1.0 | 4.0 | 0.00 | 0.00 | 0.00 | 90 | 1006.8 |
| 20260509014009 | 66 | 123 | 0.0 | 2.0 | 0.00 | 0.00 | 0.00 | 89 | 1006.5 |
| 20260509011833 | 67 | 123 | 0.0 | 4.0 | 0.00 | 0.00 | 0.00 | 87 | 1006.4 |
| 20260509010845 | 68 | 123 | 0.0 | 0.0 | 0.00 | 0.00 | 0.00 | 86 | 1006.4 |
| 20260509003515 | 70 | 189 | 2.0 | 7.0 | 0.00 | 0.00 | 0.00 | 84 | 1006.1 |
| 20260509002534 | 70 | 193 | 4.0 | 8.0 | 0.00 | 0.00 | 0.00 | 83 | 1006.1 |
| 20260509001523 | 71 | 167 | 4.0 | 8.0 | 0.00 | 0.00 | 0.00 | 82 | 1006.1 |
| 20260508235442 | 71 | 144 | 3.0 | 8.0 | 0.00 | 0.00 | 0.00 | 83 | 1006.1 |
| 20260508234417 | 71 | 186 | 3.0 | 8.0 | 0.00 | 0.00 | 0.00 | 82 | 1006.0 |
| 20260508233410 | 71 | 179 | 4.0 | 7.0 | 0.00 | 0.00 | 0.00 | 82 | 1006.3 |
| 20260508232412 | 71 | 174 | 2.0 | 7.0 | 0.00 | 0.00 | 0.00 | 83 | 1006.3 |
| 20260508231426 | 70 | 177 | 3.0 | 7.0 | 0.00 | 0.00 | 0.00 | 83 | 1006.4 |
| 20260508230448 | 70 | 149 | 3.0 | 7.0 | 0.00 | 0.00 | 0.00 | 82 | 1006.4 |
| 20260508225508 | 71 | 173 | 4.0 | 9.0 | 0.00 | 0.00 | 0.00 | 81 | 1006.4 |
| 20260508224448 | 71 | 140 | 5.0 | 10.0 | 0.00 | 0.00 | 0.00 | 82 | 1006.2 |
| 20260508222322 | 70 | 124 | 6.0 | 10.0 | 0.00 | 0.00 | 0.00 | 82 | 1006.2 |
| 20260508221335 | 71 | 144 | 5.0 | 10.0 | 0.00 | 0.00 | 0.00 | 82 | 1006.2 |
| 20260508220330 | 69 | 177 | 5.0 | 10.0 | 0.00 | 0.00 | 0.00 | 82 | 1006.5 |
| 20260508215306 | 71 | 117 | 5.0 | 10.0 | 0.00 | 0.00 | 0.00 | 82 | 1006.3 |
| 20260508214320 | 71 | 200 | 5.0 | 9.0 | 0.00 | 0.00 | 0.00 | 82 | 1006.6 |
| 20260508213300 | 70 | 198 | 5.0 | 9.0 | 0.00 | 0.00 | 0.00 | 82 | 1006.6 |
| 20260508212233 | 69 | 183 | 4.0 | 9.0 | 0.00 | 0.00 | 0.00 | 82 | 1006.9 |
| 20260508211242 | 69 | 142 | 4.0 | 9.0 | 0.00 | 0.00 | 0.00 | 83 | 1007.0 |
| 20260508210247 | 68 | 190 | 2.0 | 8.0 | 0.00 | 0.00 | 0.00 | 83 | 1007.3 |
| 20260508205306 | 68 | 182 | 4.0 | 9.0 | 0.00 | 0.00 | 0.00 | 83 | 1007.8 |
| 20260508204305 | 67 | 210 | 4.0 | 10.0 | 0.00 | 0.00 | 0.00 | 83 | 1008.2 |
| 20260508203307 | 68 | 192 | 5.0 | 10.0 | 0.00 | 0.00 | 0.00 | 82 | 1008.3 |
| 20260508202323 | 69 | 223 | 4.0 | 8.0 | 0.00 | 0.00 | 0.00 | 81 | 1008.4 |
| 20260508201259 | 70 | 192 | 4.0 | 8.0 | 0.00 | 0.00 | 0.00 | 79 | 1008.4 |